sensor_id;sensor_type;location;lat;lon;timestamp;temperature;humidity
16781;DHT22;8507;50.056;8.248;2023-02-11T00:01:09;3.50;99.90
16781;DHT22;8507;50.056;8.248;2023-02-11T00:03:35;3.40;99.90
16781;DHT22;8507;50.056;8.248;2023-02-11T00:06:04;3.50;99.90
16781;DHT22;8507;50.056;8.248;2023-02-11T00:08:31;3.50;99.90
16781;DHT22;8507;50.056;8.248;2023-02-11T00:10:57;3.60;99.90
16781;DHT22;8507;50.056;8.248;2023-02-11T00:13:23;3.60;99.90
16781;DHT22;8507;50.056;8.248;2023-02-11T00:15:49;3.60;99.90
16781;DHT22;8507;50.056;8.248;2023-02-11T00:18:15;3.60;99.90
16781;DHT22;8507;50.056;8.248;2023-02-11T00:20:41;3.60;99.90
16781;DHT22;8507;50.056;8.248;2023-02-11T00:23:07;3.50;99.90
16781;DHT22;8507;50.056;8.248;2023-02-11T00:25:37;3.40;99.90
16781;DHT22;8507;50.056;8.248;2023-02-11T00:28:03;3.40;99.90
16781;DHT22;8507;50.056;8.248;2023-02-11T00:30:28;3.30;99.90
16781;DHT22;8507;50.056;8.248;2023-02-11T00:32:54;3.10;99.90
16781;DHT22;8507;50.056;8.248;2023-02-11T00:35:19;3.00;99.90
16781;DHT22;8507;50.056;8.248;2023-02-11T00:37:45;3.10;99.90
16781;DHT22;8507;50.056;8.248;2023-02-11T00:40:10;3.10;99.90
16781;DHT22;8507;50.056;8.248;2023-02-11T00:42:36;3.20;99.90
16781;DHT22;8507;50.056;8.248;2023-02-11T00:45:02;3.40;99.90
16781;DHT22;8507;50.056;8.248;2023-02-11T00:47:28;3.50;99.90
16781;DHT22;8507;50.056;8.248;2023-02-11T00:49:53;3.50;99.90
16781;DHT22;8507;50.056;8.248;2023-02-11T00:52:19;3.70;99.90
16781;DHT22;8507;50.056;8.248;2023-02-11T00:54:44;3.70;99.90
16781;DHT22;8507;50.056;8.248;2023-02-11T00:57:10;3.80;99.90
16781;DHT22;8507;50.056;8.248;2023-02-11T00:59:36;3.80;99.90
16781;DHT22;8507;50.056;8.248;2023-02-11T01:02:01;3.80;99.90
16781;DHT22;8507;50.056;8.248;2023-02-11T01:04:27;3.70;99.90
16781;DHT22;8507;50.056;8.248;2023-02-11T01:06:52;3.70;99.90
16781;DHT22;8507;50.056;8.248;2023-02-11T01:09:18;3.80;99.90
16781;DHT22;8507;50.056;8.248;2023-02-11T01:11:45;3.70;99.90
16781;DHT22;8507;50.056;8.248;2023-02-11T01:14:11;3.80;99.90
16781;DHT22;8507;50.056;8.248;2023-02-11T01:16:36;3.80;99.90
16781;DHT22;8507;50.056;8.248;2023-02-11T01:19:02;3.50;99.90
16781;DHT22;8507;50.056;8.248;2023-02-11T01:21:28;3.30;99.90
16781;DHT22;8507;50.056;8.248;2023-02-11T01:23:53;3.40;99.90
16781;DHT22;8507;50.056;8.248;2023-02-11T01:26:19;3.50;99.90
16781;DHT22;8507;50.056;8.248;2023-02-11T01:28:45;3.70;99.90
16781;DHT22;8507;50.056;8.248;2023-02-11T01:31:10;3.80;99.90
16781;DHT22;8507;50.056;8.248;2023-02-11T01:33:36;3.90;99.90
16781;DHT22;8507;50.056;8.248;2023-02-11T01:36:03;3.90;99.90
16781;DHT22;8507;50.056;8.248;2023-02-11T01:38:30;4.00;99.90
16781;DHT22;8507;50.056;8.248;2023-02-11T01:40:58;4.00;99.90
16781;DHT22;8507;50.056;8.248;2023-02-11T01:43:26;4.10;99.90
16781;DHT22;8507;50.056;8.248;2023-02-11T01:48:29;4.10;99.90
16781;DHT22;8507;50.056;8.248;2023-02-11T01:51:02;4.10;99.90
16781;DHT22;8507;50.056;8.248;2023-02-11T01:53:29;4.00;99.90
16781;DHT22;8507;50.056;8.248;2023-02-11T01:56:15;4.00;99.90
16781;DHT22;8507;50.056;8.248;2023-02-11T01:59:06;4.10;99.90
16781;DHT22;8507;50.056;8.248;2023-02-11T02:01:34;3.90;99.90
16781;DHT22;8507;50.056;8.248;2023-02-11T02:04:04;3.90;99.90
16781;DHT22;8507;50.056;8.248;2023-02-11T02:06:35;4.00;99.90
16781;DHT22;8507;50.056;8.248;2023-02-11T02:09:08;3.90;99.90
16781;DHT22;8507;50.056;8.248;2023-02-11T02:11:36;4.00;99.90
16781;DHT22;8507;50.056;8.248;2023-02-11T02:14:02;4.00;99.90
16781;DHT22;8507;50.056;8.248;2023-02-11T02:16:33;4.00;99.90
16781;DHT22;8507;50.056;8.248;2023-02-11T02:21:48;3.90;99.90
16781;DHT22;8507;50.056;8.248;2023-02-11T02:30:48;3.90;99.90
16781;DHT22;8507;50.056;8.248;2023-02-11T02:33:21;4.10;99.90
16781;DHT22;8507;50.056;8.248;2023-02-11T02:41:02;4.20;99.90
16781;DHT22;8507;50.056;8.248;2023-02-11T02:43:29;4.10;99.90
16781;DHT22;8507;50.056;8.248;2023-02-11T02:46:24;4.10;99.90
16781;DHT22;8507;50.056;8.248;2023-02-11T02:48:52;4.20;99.90
16781;DHT22;8507;50.056;8.248;2023-02-11T02:54:04;4.10;99.90
16781;DHT22;8507;50.056;8.248;2023-02-11T03:07:09;4.10;99.90
16781;DHT22;8507;50.056;8.248;2023-02-11T03:09:50;4.10;99.90
16781;DHT22;8507;50.056;8.248;2023-02-11T03:12:20;4.00;99.90
16781;DHT22;8507;50.056;8.248;2023-02-11T03:14:47;4.00;99.90
16781;DHT22;8507;50.056;8.248;2023-02-11T03:17:15;3.90;99.90
16781;DHT22;8507;50.056;8.248;2023-02-11T03:19:43;3.90;99.90
16781;DHT22;8507;50.056;8.248;2023-02-11T03:22:18;3.90;99.90
16781;DHT22;8507;50.056;8.248;2023-02-11T03:24:45;3.90;99.90
16781;DHT22;8507;50.056;8.248;2023-02-11T03:27:24;3.90;99.90
16781;DHT22;8507;50.056;8.248;2023-02-11T03:32:27;3.90;99.90
16781;DHT22;8507;50.056;8.248;2023-02-11T03:35:05;3.90;99.90
16781;DHT22;8507;50.056;8.248;2023-02-11T03:37:35;3.90;99.90
16781;DHT22;8507;50.056;8.248;2023-02-11T03:40:38;3.90;99.90
16781;DHT22;8507;50.056;8.248;2023-02-11T03:43:00;3.90;99.90
16781;DHT22;8507;50.056;8.248;2023-02-11T03:45:27;3.90;99.90
16781;DHT22;8507;50.056;8.248;2023-02-11T03:47:59;3.90;99.90
16781;DHT22;8507;50.056;8.248;2023-02-11T03:50:25;3.90;99.90
16781;DHT22;8507;50.056;8.248;2023-02-11T03:52:52;3.90;99.90
16781;DHT22;8507;50.056;8.248;2023-02-11T03:55:19;3.80;99.90
16781;DHT22;8507;50.056;8.248;2023-02-11T03:57:47;3.80;99.90
16781;DHT22;8507;50.056;8.248;2023-02-11T04:00:13;3.80;99.90
16781;DHT22;8507;50.056;8.248;2023-02-11T04:02:40;3.70;99.90
16781;DHT22;8507;50.056;8.248;2023-02-11T04:05:07;3.60;99.90
16781;DHT22;8507;50.056;8.248;2023-02-11T04:07:33;3.50;99.90
16781;DHT22;8507;50.056;8.248;2023-02-11T04:09:59;3.50;99.90
16781;DHT22;8507;50.056;8.248;2023-02-11T04:12:25;3.40;99.90
16781;DHT22;8507;50.056;8.248;2023-02-11T04:14:50;3.40;99.90
16781;DHT22;8507;50.056;8.248;2023-02-11T04:17:16;3.30;99.90
16781;DHT22;8507;50.056;8.248;2023-02-11T04:19:42;3.30;99.90
16781;DHT22;8507;50.056;8.248;2023-02-11T04:22:08;3.30;99.90
16781;DHT22;8507;50.056;8.248;2023-02-11T04:24:33;3.20;99.90
16781;DHT22;8507;50.056;8.248;2023-02-11T04:26:59;3.10;99.90
16781;DHT22;8507;50.056;8.248;2023-02-11T04:29:25;3.00;99.90
16781;DHT22;8507;50.056;8.248;2023-02-11T04:31:50;3.10;99.90
16781;DHT22;8507;50.056;8.248;2023-02-11T04:34:16;3.10;99.90
16781;DHT22;8507;50.056;8.248;2023-02-11T04:36:41;3.10;99.90
16781;DHT22;8507;50.056;8.248;2023-02-11T04:39:07;3.10;99.90
16781;DHT22;8507;50.056;8.248;2023-02-11T04:41:33;3.10;99.90
16781;DHT22;8507;50.056;8.248;2023-02-11T04:43:58;3.20;99.90
16781;DHT22;8507;50.056;8.248;2023-02-11T04:46:24;3.30;99.90
16781;DHT22;8507;50.056;8.248;2023-02-11T04:48:49;3.30;99.90
16781;DHT22;8507;50.056;8.248;2023-02-11T04:51:15;3.40;99.90
16781;DHT22;8507;50.056;8.248;2023-02-11T04:53:40;3.50;99.90
16781;DHT22;8507;50.056;8.248;2023-02-11T04:56:06;3.50;99.90
16781;DHT22;8507;50.056;8.248;2023-02-11T04:58:31;3.50;99.90
16781;DHT22;8507;50.056;8.248;2023-02-11T05:01:05;3.40;99.90
16781;DHT22;8507;50.056;8.248;2023-02-11T05:03:31;3.40;99.90
16781;DHT22;8507;50.056;8.248;2023-02-11T05:05:56;3.50;99.90
16781;DHT22;8507;50.056;8.248;2023-02-11T05:08:22;3.40;99.90
16781;DHT22;8507;50.056;8.248;2023-02-11T05:10:47;3.50;99.90
16781;DHT22;8507;50.056;8.248;2023-02-11T05:13:13;3.50;99.90
16781;DHT22;8507;50.056;8.248;2023-02-11T05:15:39;3.50;99.90
16781;DHT22;8507;50.056;8.248;2023-02-11T05:18:04;3.50;99.90
16781;DHT22;8507;50.056;8.248;2023-02-11T05:20:30;3.60;99.90
16781;DHT22;8507;50.056;8.248;2023-02-11T05:22:55;3.50;99.90
16781;DHT22;8507;50.056;8.248;2023-02-11T05:25:21;3.50;99.90
16781;DHT22;8507;50.056;8.248;2023-02-11T05:27:46;3.50;99.90
16781;DHT22;8507;50.056;8.248;2023-02-11T05:30:12;3.50;99.90
16781;DHT22;8507;50.056;8.248;2023-02-11T05:32:37;3.60;99.90
16781;DHT22;8507;50.056;8.248;2023-02-11T05:35:03;3.60;99.90
16781;DHT22;8507;50.056;8.248;2023-02-11T05:37:29;3.60;99.90
16781;DHT22;8507;50.056;8.248;2023-02-11T05:39:54;3.60;99.90
16781;DHT22;8507;50.056;8.248;2023-02-11T05:42:19;3.60;99.90
16781;DHT22;8507;50.056;8.248;2023-02-11T05:44:45;3.50;99.90
16781;DHT22;8507;50.056;8.248;2023-02-11T05:47:11;3.50;99.90
16781;DHT22;8507;50.056;8.248;2023-02-11T05:49:36;3.50;99.90
16781;DHT22;8507;50.056;8.248;2023-02-11T05:52:02;3.60;99.90
16781;DHT22;8507;50.056;8.248;2023-02-11T05:54:27;3.60;99.90
16781;DHT22;8507;50.056;8.248;2023-02-11T05:56:53;3.50;99.90
16781;DHT22;8507;50.056;8.248;2023-02-11T05:59:18;3.50;99.90
16781;DHT22;8507;50.056;8.248;2023-02-11T06:01:44;3.40;99.90
16781;DHT22;8507;50.056;8.248;2023-02-11T06:04:09;3.40;99.90
16781;DHT22;8507;50.056;8.248;2023-02-11T06:06:35;3.40;99.90
16781;DHT22;8507;50.056;8.248;2023-02-11T06:09:01;3.30;99.90
16781;DHT22;8507;50.056;8.248;2023-02-11T06:11:27;3.20;99.90
16781;DHT22;8507;50.056;8.248;2023-02-11T06:13:52;3.20;99.90
16781;DHT22;8507;50.056;8.248;2023-02-11T06:16:18;3.10;99.90
16781;DHT22;8507;50.056;8.248;2023-02-11T06:18:43;3.00;99.90
16781;DHT22;8507;50.056;8.248;2023-02-11T06:21:10;2.90;99.90
16781;DHT22;8507;50.056;8.248;2023-02-11T06:23:36;2.90;99.90
16781;DHT22;8507;50.056;8.248;2023-02-11T06:26:06;2.90;99.90
16781;DHT22;8507;50.056;8.248;2023-02-11T06:28:33;3.00;99.90
16781;DHT22;8507;50.056;8.248;2023-02-11T06:31:06;2.90;99.90
16781;DHT22;8507;50.056;8.248;2023-02-11T06:33:33;2.80;99.90
16781;DHT22;8507;50.056;8.248;2023-02-11T06:35:58;2.30;99.90
16781;DHT22;8507;50.056;8.248;2023-02-11T06:38:24;2.20;99.90
16781;DHT22;8507;50.056;8.248;2023-02-11T06:40:50;2.30;99.90
16781;DHT22;8507;50.056;8.248;2023-02-11T06:43:15;2.50;99.90
16781;DHT22;8507;50.056;8.248;2023-02-11T06:45:41;2.60;99.90
16781;DHT22;8507;50.056;8.248;2023-02-11T06:48:06;2.60;99.90
16781;DHT22;8507;50.056;8.248;2023-02-11T06:50:32;2.60;99.90
16781;DHT22;8507;50.056;8.248;2023-02-11T06:52:58;2.60;99.90
16781;DHT22;8507;50.056;8.248;2023-02-11T06:55:24;2.50;99.90
16781;DHT22;8507;50.056;8.248;2023-02-11T06:57:50;2.60;99.90
16781;DHT22;8507;50.056;8.248;2023-02-11T07:00:16;2.50;99.90
16781;DHT22;8507;50.056;8.248;2023-02-11T07:02:41;2.50;99.90
16781;DHT22;8507;50.056;8.248;2023-02-11T07:05:07;2.50;99.90
16781;DHT22;8507;50.056;8.248;2023-02-11T07:07:33;2.50;99.90
16781;DHT22;8507;50.056;8.248;2023-02-11T07:09:59;2.50;99.90
16781;DHT22;8507;50.056;8.248;2023-02-11T07:12:25;2.40;99.90
16781;DHT22;8507;50.056;8.248;2023-02-11T07:14:50;2.60;99.90
16781;DHT22;8507;50.056;8.248;2023-02-11T07:17:17;2.60;99.90
16781;DHT22;8507;50.056;8.248;2023-02-11T07:19:42;2.70;99.90
16781;DHT22;8507;50.056;8.248;2023-02-11T07:22:08;2.60;99.90
16781;DHT22;8507;50.056;8.248;2023-02-11T07:24:33;2.60;99.90
16781;DHT22;8507;50.056;8.248;2023-02-11T07:26:59;2.80;99.90
16781;DHT22;8507;50.056;8.248;2023-02-11T07:29:24;2.80;99.90
16781;DHT22;8507;50.056;8.248;2023-02-11T07:31:50;2.60;99.90
16781;DHT22;8507;50.056;8.248;2023-02-11T07:34:15;2.50;99.90
16781;DHT22;8507;50.056;8.248;2023-02-11T07:36:41;2.60;99.90
16781;DHT22;8507;50.056;8.248;2023-02-11T07:39:08;2.90;99.90
16781;DHT22;8507;50.056;8.248;2023-02-11T07:41:33;2.90;99.90
16781;DHT22;8507;50.056;8.248;2023-02-11T07:44:01;3.10;99.90
16781;DHT22;8507;50.056;8.248;2023-02-11T07:46:27;3.30;99.90
16781;DHT22;8507;50.056;8.248;2023-02-11T07:48:54;3.50;99.90
16781;DHT22;8507;50.056;8.248;2023-02-11T07:51:25;3.60;99.90
16781;DHT22;8507;50.056;8.248;2023-02-11T07:53:51;3.70;99.90
16781;DHT22;8507;50.056;8.248;2023-02-11T07:56:18;3.70;99.90
16781;DHT22;8507;50.056;8.248;2023-02-11T07:58:44;3.80;99.90
16781;DHT22;8507;50.056;8.248;2023-02-11T08:01:18;3.90;99.90
16781;DHT22;8507;50.056;8.248;2023-02-11T08:03:44;4.00;99.90
16781;DHT22;8507;50.056;8.248;2023-02-11T08:06:15;4.10;99.90
16781;DHT22;8507;50.056;8.248;2023-02-11T08:08:41;4.20;99.90
16781;DHT22;8507;50.056;8.248;2023-02-11T08:11:16;4.40;99.90
16781;DHT22;8507;50.056;8.248;2023-02-11T08:13:42;4.50;99.90
16781;DHT22;8507;50.056;8.248;2023-02-11T08:16:08;4.70;99.90
16781;DHT22;8507;50.056;8.248;2023-02-11T08:18:35;4.80;99.90
16781;DHT22;8507;50.056;8.248;2023-02-11T08:21:07;4.90;99.90
16781;DHT22;8507;50.056;8.248;2023-02-11T08:23:35;5.00;99.90
16781;DHT22;8507;50.056;8.248;2023-02-11T08:26:06;5.10;99.90
16781;DHT22;8507;50.056;8.248;2023-02-11T08:28:35;5.20;99.90
16781;DHT22;8507;50.056;8.248;2023-02-11T08:31:11;5.20;99.90
16781;DHT22;8507;50.056;8.248;2023-02-11T08:33:38;5.20;99.90
16781;DHT22;8507;50.056;8.248;2023-02-11T08:36:17;5.30;99.90
16781;DHT22;8507;50.056;8.248;2023-02-11T08:38:43;5.30;99.90
16781;DHT22;8507;50.056;8.248;2023-02-11T08:41:09;5.40;99.90
16781;DHT22;8507;50.056;8.248;2023-02-11T08:43:35;5.40;99.90
16781;DHT22;8507;50.056;8.248;2023-02-11T08:46:01;5.50;99.90
16781;DHT22;8507;50.056;8.248;2023-02-11T08:48:27;5.70;99.90
16781;DHT22;8507;50.056;8.248;2023-02-11T08:50:54;5.80;99.90
16781;DHT22;8507;50.056;8.248;2023-02-11T08:53:19;5.90;99.90
16781;DHT22;8507;50.056;8.248;2023-02-11T08:55:49;6.10;99.90
16781;DHT22;8507;50.056;8.248;2023-02-11T08:58:15;6.20;99.90
16781;DHT22;8507;50.056;8.248;2023-02-11T09:00:41;6.50;99.90
16781;DHT22;8507;50.056;8.248;2023-02-11T09:03:10;6.50;99.90
16781;DHT22;8507;50.056;8.248;2023-02-11T09:05:43;6.50;99.90
16781;DHT22;8507;50.056;8.248;2023-02-11T09:08:08;6.30;99.90
16781;DHT22;8507;50.056;8.248;2023-02-11T09:10:34;6.10;99.90
16781;DHT22;8507;50.056;8.248;2023-02-11T09:13:00;6.10;99.90
16781;DHT22;8507;50.056;8.248;2023-02-11T09:15:25;6.20;99.90
16781;DHT22;8507;50.056;8.248;2023-02-11T09:17:51;6.30;99.90
16781;DHT22;8507;50.056;8.248;2023-02-11T09:20:17;6.60;99.90
16781;DHT22;8507;50.056;8.248;2023-02-11T09:22:42;6.70;99.90
16781;DHT22;8507;50.056;8.248;2023-02-11T09:25:09;6.80;99.90
16781;DHT22;8507;50.056;8.248;2023-02-11T09:27:35;7.00;99.90
16781;DHT22;8507;50.056;8.248;2023-02-11T09:30:00;7.20;99.90
16781;DHT22;8507;50.056;8.248;2023-02-11T09:32:26;7.20;99.90
16781;DHT22;8507;50.056;8.248;2023-02-11T09:34:51;7.20;99.90
16781;DHT22;8507;50.056;8.248;2023-02-11T09:37:17;7.20;99.90
16781;DHT22;8507;50.056;8.248;2023-02-11T09:39:42;7.20;99.90
16781;DHT22;8507;50.056;8.248;2023-02-11T09:45:31;7.20;99.90
16781;DHT22;8507;50.056;8.248;2023-02-11T09:48:09;7.20;99.90
16781;DHT22;8507;50.056;8.248;2023-02-11T09:50:48;7.30;99.90
16781;DHT22;8507;50.056;8.248;2023-02-11T09:53:28;7.20;99.90
16781;DHT22;8507;50.056;8.248;2023-02-11T09:55:58;7.20;99.90
16781;DHT22;8507;50.056;8.248;2023-02-11T09:58:30;7.30;99.90
16781;DHT22;8507;50.056;8.248;2023-02-11T10:01:20;7.40;99.90
16781;DHT22;8507;50.056;8.248;2023-02-11T10:06:45;7.40;99.90
16781;DHT22;8507;50.056;8.248;2023-02-11T10:09:31;7.50;99.90
16781;DHT22;8507;50.056;8.248;2023-02-11T10:12:19;7.50;99.90
16781;DHT22;8507;50.056;8.248;2023-02-11T10:17:24;7.50;99.90
16781;DHT22;8507;50.056;8.248;2023-02-11T10:20:30;7.50;99.90
16781;DHT22;8507;50.056;8.248;2023-02-11T10:22:59;7.50;99.90
16781;DHT22;8507;50.056;8.248;2023-02-11T10:25:37;7.60;99.90
16781;DHT22;8507;50.056;8.248;2023-02-11T10:28:18;7.60;99.90
16781;DHT22;8507;50.056;8.248;2023-02-11T10:30:59;7.60;99.90
16781;DHT22;8507;50.056;8.248;2023-02-11T10:33:33;7.50;99.90
16781;DHT22;8507;50.056;8.248;2023-02-11T10:36:03;7.60;99.90
16781;DHT22;8507;50.056;8.248;2023-02-11T10:38:28;7.60;99.90
16781;DHT22;8507;50.056;8.248;2023-02-11T10:40:54;7.60;99.90
16781;DHT22;8507;50.056;8.248;2023-02-11T10:43:23;7.50;99.90
16781;DHT22;8507;50.056;8.248;2023-02-11T10:45:52;7.40;99.90
16781;DHT22;8507;50.056;8.248;2023-02-11T10:48:46;7.40;99.90
16781;DHT22;8507;50.056;8.248;2023-02-11T10:53:44;7.40;99.90
16781;DHT22;8507;50.056;8.248;2023-02-11T10:56:31;7.40;99.90
16781;DHT22;8507;50.056;8.248;2023-02-11T10:59:00;7.40;99.90
16781;DHT22;8507;50.056;8.248;2023-02-11T11:04:05;7.70;99.90
16781;DHT22;8507;50.056;8.248;2023-02-11T11:06:31;7.80;99.90
16781;DHT22;8507;50.056;8.248;2023-02-11T11:08:57;7.70;99.90
16781;DHT22;8507;50.056;8.248;2023-02-11T11:11:25;7.80;99.90
16781;DHT22;8507;50.056;8.248;2023-02-11T11:13:59;7.80;99.90
16781;DHT22;8507;50.056;8.248;2023-02-11T11:16:28;7.90;99.90
16781;DHT22;8507;50.056;8.248;2023-02-11T11:21:46;7.90;99.90
16781;DHT22;8507;50.056;8.248;2023-02-11T11:24:26;7.90;99.90
16781;DHT22;8507;50.056;8.248;2023-02-11T11:26:58;8.20;99.90
16781;DHT22;8507;50.056;8.248;2023-02-11T11:29:42;8.40;99.90
16781;DHT22;8507;50.056;8.248;2023-02-11T11:32:22;8.50;99.90
16781;DHT22;8507;50.056;8.248;2023-02-11T11:34:51;8.50;99.90
16781;DHT22;8507;50.056;8.248;2023-02-11T11:37:25;8.60;99.90
16781;DHT22;8507;50.056;8.248;2023-02-11T11:42:25;8.50;99.90
16781;DHT22;8507;50.056;8.248;2023-02-11T11:47:45;8.60;99.90
16781;DHT22;8507;50.056;8.248;2023-02-11T11:50:41;8.50;99.90
16781;DHT22;8507;50.056;8.248;2023-02-11T11:56:08;8.50;99.90
16781;DHT22;8507;50.056;8.248;2023-02-11T11:58:36;8.30;99.90
16781;DHT22;8507;50.056;8.248;2023-02-11T12:09:30;8.40;99.90
16781;DHT22;8507;50.056;8.248;2023-02-11T12:12:17;8.40;99.90
16781;DHT22;8507;50.056;8.248;2023-02-11T12:14:58;8.40;99.90
16781;DHT22;8507;50.056;8.248;2023-02-11T12:17:46;8.50;99.90
16781;DHT22;8507;50.056;8.248;2023-02-11T12:20:35;8.60;99.90
16781;DHT22;8507;50.056;8.248;2023-02-11T12:23:13;8.60;99.90
16781;DHT22;8507;50.056;8.248;2023-02-11T12:26:11;8.70;99.90
16781;DHT22;8507;50.056;8.248;2023-02-11T12:34:49;8.80;99.90
16781;DHT22;8507;50.056;8.248;2023-02-11T12:37:50;8.80;99.90
16781;DHT22;8507;50.056;8.248;2023-02-11T12:43:11;8.80;99.90
16781;DHT22;8507;50.056;8.248;2023-02-11T12:51:15;8.80;99.90
16781;DHT22;8507;50.056;8.248;2023-02-11T12:54:07;8.80;99.90
16781;DHT22;8507;50.056;8.248;2023-02-11T12:56:47;8.80;99.90
16781;DHT22;8507;50.056;8.248;2023-02-11T13:04:47;8.70;99.90
16781;DHT22;8507;50.056;8.248;2023-02-11T13:07:23;8.70;99.90
16781;DHT22;8507;50.056;8.248;2023-02-11T13:10:08;8.60;99.90
16781;DHT22;8507;50.056;8.248;2023-02-11T13:12:42;8.60;99.90
16781;DHT22;8507;50.056;8.248;2023-02-11T13:15:29;8.50;99.90
16781;DHT22;8507;50.056;8.248;2023-02-11T13:18:44;8.60;99.90
16781;DHT22;8507;50.056;8.248;2023-02-11T13:20:52;8.70;99.90
16781;DHT22;8507;50.056;8.248;2023-02-11T13:28:44;8.60;99.90
16781;DHT22;8507;50.056;8.248;2023-02-11T13:31:11;8.60;99.90
16781;DHT22;8507;50.056;8.248;2023-02-11T13:33:39;8.50;99.90
16781;DHT22;8507;50.056;8.248;2023-02-11T13:38:33;8.60;99.90
16781;DHT22;8507;50.056;8.248;2023-02-11T13:43:59;8.60;99.90
16781;DHT22;8507;50.056;8.248;2023-02-11T13:46:28;8.70;99.90
16781;DHT22;8507;50.056;8.248;2023-02-11T13:48:54;8.60;99.90
16781;DHT22;8507;50.056;8.248;2023-02-11T13:51:39;8.70;99.90
16781;DHT22;8507;50.056;8.248;2023-02-11T13:54:06;8.70;99.90
16781;DHT22;8507;50.056;8.248;2023-02-11T13:56:40;8.60;99.90
16781;DHT22;8507;50.056;8.248;2023-02-11T14:10:58;8.70;99.90
16781;DHT22;8507;50.056;8.248;2023-02-11T14:13:33;8.70;99.90
16781;DHT22;8507;50.056;8.248;2023-02-11T14:16:11;8.70;99.90
16781;DHT22;8507;50.056;8.248;2023-02-11T14:23:50;8.70;99.90
16781;DHT22;8507;50.056;8.248;2023-02-11T14:42:24;8.70;99.90
16781;DHT22;8507;50.056;8.248;2023-02-11T14:44:53;8.70;99.90
16781;DHT22;8507;50.056;8.248;2023-02-11T14:47:27;8.70;99.90
16781;DHT22;8507;50.056;8.248;2023-02-11T14:49:54;8.70;99.90
16781;DHT22;8507;50.056;8.248;2023-02-11T14:54:48;8.60;99.90
16781;DHT22;8507;50.056;8.248;2023-02-11T14:57:17;8.70;99.90
16781;DHT22;8507;50.056;8.248;2023-02-11T14:59:55;8.70;99.90
16781;DHT22;8507;50.056;8.248;2023-02-11T15:02:27;8.70;99.90
16781;DHT22;8507;50.056;8.248;2023-02-11T15:04:53;8.70;99.90
16781;DHT22;8507;50.056;8.248;2023-02-11T15:07:20;8.60;99.90
16781;DHT22;8507;50.056;8.248;2023-02-11T15:09:49;8.60;99.90
16781;DHT22;8507;50.056;8.248;2023-02-11T15:12:24;8.60;99.90
16781;DHT22;8507;50.056;8.248;2023-02-11T15:14:58;8.70;99.90
16781;DHT22;8507;50.056;8.248;2023-02-11T15:17:27;8.70;99.90
16781;DHT22;8507;50.056;8.248;2023-02-11T15:19:57;8.70;99.90
16781;DHT22;8507;50.056;8.248;2023-02-11T15:22:27;8.70;99.90
16781;DHT22;8507;50.056;8.248;2023-02-11T15:24:58;8.70;99.90
16781;DHT22;8507;50.056;8.248;2023-02-11T15:27:24;8.70;99.90
16781;DHT22;8507;50.056;8.248;2023-02-11T15:29:50;8.70;99.90
16781;DHT22;8507;50.056;8.248;2023-02-11T15:32:18;8.70;99.90
16781;DHT22;8507;50.056;8.248;2023-02-11T15:34:46;8.70;99.90
16781;DHT22;8507;50.056;8.248;2023-02-11T15:37:21;8.70;99.90
16781;DHT22;8507;50.056;8.248;2023-02-11T15:39:48;8.70;99.90
16781;DHT22;8507;50.056;8.248;2023-02-11T15:44:42;8.80;99.90
16781;DHT22;8507;50.056;8.248;2023-02-11T15:47:11;8.80;99.90
16781;DHT22;8507;50.056;8.248;2023-02-11T15:49:44;8.90;99.90
16781;DHT22;8507;50.056;8.248;2023-02-11T15:52:11;8.80;99.90
16781;DHT22;8507;50.056;8.248;2023-02-11T15:54:38;8.80;99.90
16781;DHT22;8507;50.056;8.248;2023-02-11T15:57:07;8.80;99.90
16781;DHT22;8507;50.056;8.248;2023-02-11T15:59:37;8.80;99.90
16781;DHT22;8507;50.056;8.248;2023-02-11T16:02:32;8.80;99.90
16781;DHT22;8507;50.056;8.248;2023-02-11T16:05:05;8.70;99.90
16781;DHT22;8507;50.056;8.248;2023-02-11T16:07:47;8.70;99.90
16781;DHT22;8507;50.056;8.248;2023-02-11T16:20:56;8.70;99.90
16781;DHT22;8507;50.056;8.248;2023-02-11T16:23:26;8.80;99.90
16781;DHT22;8507;50.056;8.248;2023-02-11T16:26:04;8.70;99.90
16781;DHT22;8507;50.056;8.248;2023-02-11T16:28:33;8.70;99.90
16781;DHT22;8507;50.056;8.248;2023-02-11T16:30:59;8.70;99.90
16781;DHT22;8507;50.056;8.248;2023-02-11T16:33:25;8.70;99.90
16781;DHT22;8507;50.056;8.248;2023-02-11T16:35:51;8.70;99.90
16781;DHT22;8507;50.056;8.248;2023-02-11T16:38:16;8.70;99.90
16781;DHT22;8507;50.056;8.248;2023-02-11T16:40:42;8.70;99.90
16781;DHT22;8507;50.056;8.248;2023-02-11T16:43:10;8.70;99.90
16781;DHT22;8507;50.056;8.248;2023-02-11T16:45:37;8.70;99.90
16781;DHT22;8507;50.056;8.248;2023-02-11T16:48:06;8.60;99.90
16781;DHT22;8507;50.056;8.248;2023-02-11T16:50:33;8.60;99.90
16781;DHT22;8507;50.056;8.248;2023-02-11T16:52:59;8.60;99.90
16781;DHT22;8507;50.056;8.248;2023-02-11T16:55:26;8.60;99.90
16781;DHT22;8507;50.056;8.248;2023-02-11T16:57:52;8.60;99.90
16781;DHT22;8507;50.056;8.248;2023-02-11T17:00:18;8.60;99.90
16781;DHT22;8507;50.056;8.248;2023-02-11T17:02:44;8.60;99.90
16781;DHT22;8507;50.056;8.248;2023-02-11T17:05:20;8.60;99.90
16781;DHT22;8507;50.056;8.248;2023-02-11T17:07:47;8.60;99.90
16781;DHT22;8507;50.056;8.248;2023-02-11T17:10:15;8.60;99.90
16781;DHT22;8507;50.056;8.248;2023-02-11T17:12:41;8.60;99.90
16781;DHT22;8507;50.056;8.248;2023-02-11T17:15:06;8.70;99.90
16781;DHT22;8507;50.056;8.248;2023-02-11T17:17:32;8.70;99.90
16781;DHT22;8507;50.056;8.248;2023-02-11T17:19:57;8.60;99.90
16781;DHT22;8507;50.056;8.248;2023-02-11T17:22:23;8.60;99.90
16781;DHT22;8507;50.056;8.248;2023-02-11T17:24:48;8.60;99.90
16781;DHT22;8507;50.056;8.248;2023-02-11T17:27:15;8.60;99.90
16781;DHT22;8507;50.056;8.248;2023-02-11T17:29:41;8.60;99.90
16781;DHT22;8507;50.056;8.248;2023-02-11T17:32:07;8.60;99.90
16781;DHT22;8507;50.056;8.248;2023-02-11T17:34:32;8.70;99.90
16781;DHT22;8507;50.056;8.248;2023-02-11T17:36:58;8.60;99.90
16781;DHT22;8507;50.056;8.248;2023-02-11T17:39:25;8.60;99.90
16781;DHT22;8507;50.056;8.248;2023-02-11T17:41:51;8.60;99.90
16781;DHT22;8507;50.056;8.248;2023-02-11T17:44:16;8.60;99.90
16781;DHT22;8507;50.056;8.248;2023-02-11T17:46:42;8.60;99.90
16781;DHT22;8507;50.056;8.248;2023-02-11T17:49:12;8.60;99.90
16781;DHT22;8507;50.056;8.248;2023-02-11T17:51:38;8.60;99.90
16781;DHT22;8507;50.056;8.248;2023-02-11T17:54:09;8.50;99.90
16781;DHT22;8507;50.056;8.248;2023-02-11T17:56:36;8.50;99.90
16781;DHT22;8507;50.056;8.248;2023-02-11T17:59:03;8.50;99.90
16781;DHT22;8507;50.056;8.248;2023-02-11T18:01:30;8.50;99.90
16781;DHT22;8507;50.056;8.248;2023-02-11T18:03:56;8.40;99.90
16781;DHT22;8507;50.056;8.248;2023-02-11T18:06:21;8.50;99.90
16781;DHT22;8507;50.056;8.248;2023-02-11T18:08:48;8.50;99.90
16781;DHT22;8507;50.056;8.248;2023-02-11T18:11:14;8.50;99.90
16781;DHT22;8507;50.056;8.248;2023-02-11T18:13:40;8.50;99.90
16781;DHT22;8507;50.056;8.248;2023-02-11T18:16:06;8.40;99.90
16781;DHT22;8507;50.056;8.248;2023-02-11T18:18:33;8.40;99.90
16781;DHT22;8507;50.056;8.248;2023-02-11T18:21:01;8.40;99.90
16781;DHT22;8507;50.056;8.248;2023-02-11T18:23:28;8.40;99.90
16781;DHT22;8507;50.056;8.248;2023-02-11T18:25:54;8.30;99.90
16781;DHT22;8507;50.056;8.248;2023-02-11T18:28:20;8.30;99.90
16781;DHT22;8507;50.056;8.248;2023-02-11T18:30:45;8.30;99.90
16781;DHT22;8507;50.056;8.248;2023-02-11T18:33:11;8.30;99.90
16781;DHT22;8507;50.056;8.248;2023-02-11T18:35:40;8.30;99.90
16781;DHT22;8507;50.056;8.248;2023-02-11T18:38:06;8.30;99.90
16781;DHT22;8507;50.056;8.248;2023-02-11T18:40:32;8.30;99.90